Terminal Aerodrome Forecast
Issued by NWS

Home | Current Version | Previous Version | Text Only | Print | Product List | Glossary On
Versions: 1 2 3 4 5 6 7 8 9 10 11 12
000
FTUS43 KDMX 161735
TAFFOD
TAF
KFOD 161735Z 1618/1718 22012KT P6SM SKC
     FM170300 20008KT P6SM SKC WS020/23040KT
     FM171200 22009KT P6SM SKC=

USA.gov is the U.S. government's official web portal to all federal, state and local government web resources and services.